• Join FlightAware (Why Join?)
  • Login
  • US Flag 
08:10AM EDT


 

Airport Tracker/Info


-or-


 

Live Flight TrackerFlight Track Log ✈ UPS2054 ✈ 24-Jul-2013 ✈ KSDF - KMHT

Flight Track Log - Related Links

Times and Time Zones

All times are in EDT time to prevent confusion due to time zone crossing. See the UPS2054 flight status page for this flight to view local times or setup timezone preferences in your user account.

Time Position Orientation Groundspeed Altitude Reporting Facility
EDT Latitude Longitude Course Direction KTS MPH feet Rate Location/Type
04:51PM 38.1720 -85.7410 289° West 22 25  Level FlightAware
04:51PM 38.1730 -85.7420 322° Northwest 34 39 180 Level FlightAware
04:52PM 38.1750 -85.7420 360° North 15 17 180 Level FlightAware
04:53PM 38.1780 -85.7410 15° North 18 21 180 Level FlightAware
04:53PM 38.1780 -85.7400 90° East 19 22 240 Level FlightAware
04:54PM 38.1770 -85.7370 113° Southeast 21 24 240 Level FlightAware
04:54PM 38.1770 -85.7350 90° East 21 24 300 Level FlightAware
04:55PM 38.1740 -85.7280 119° Southeast 17 20 300 Level FlightAware
04:55PM 38.1710 -85.7270 165° South 23 26 420 Level FlightAware
04:58PM 38.0667 -85.4717 90° East  Level FlightAware Approximate
04:58PM 38.1950 -85.7340 90° East 167 192 1,500  Level FlightAware
04:59PM 38.0667 -85.3132 90° East  Level FlightAware Approximate
04:59PM 38.2170 -85.7420 344° North 182 209 2,600  Level FlightAware
04:59PM 38.2360 -85.7480 346° North 213 245 3,100 1,500 Climbing FlightAware
05:00PM 38.2550 -85.7470 North 241 277 3,600 1,560 Climbing FlightAware
05:00PM 38.2640 -85.7420 24° Northeast 253 291 3,800 3,000 Climbing FlightAware
05:00PM 38.2800 -85.7190 48° Northeast 259 298 5,000 3,240 Climbing FlightAware
05:01PM 38.2940 -85.6810 65° Northeast 272 313 6,400 3,000 Climbing FlightAware
05:01PM 38.2810 -85.6240 106° East 300 345 8,200 2,820 Climbing FlightAware
05:02PM 38.2450 -85.5880 142° Southeast 317 365 9,600 2,340 Climbing FlightAware
05:02PM 38.1890 -85.5340 143° Southeast 355 409 11,300 1,800 Climbing FlightAware
05:03PM 38.1420 -85.4870 142° Southeast 397 457 12,000 1,740 Climbing FlightAware
05:03PM 38.1030 -85.4420 138° Southeast 411 473 13,100 2,280 Climbing FlightAware
05:04PM 38.0780 -85.3430 108° East 424 488 14,700 2,340 Climbing FlightAware
05:05PM 38.0670 -85.2560 99° East 434 499 16,200 2,400 Climbing FlightAware
05:06PM 38.0510 -85.1340 99° East 444 511 18,100 2,160 Climbing FlightAware
05:06PM 38.0370 -85.0330 100° East 456 525 19,400 2,040 Climbing FlightAware
05:07PM 38.0230 -84.9130 98° East 464 534 21,000 2,040 Climbing FlightAware
05:08PM 38.0090 -84.8040 99° East 473 544 22,300 1,980 Climbing FlightAware
05:08PM 37.9940 -84.6850 99° East 480 552 23,700 1,560 Climbing FlightAware
05:09PM 37.9830 -84.5920 99° East 493 567 24,400 1,380 Climbing FlightAware
05:10PM 37.9790 -84.4400 92° East 502 578 25,800 1,680 Climbing FlightAware
05:11PM 37.9900 -84.3270 83° East 501 577 27,100 960 Climbing FlightAware
05:11PM 38.0000 -84.2350 82° East 501 577 27,100 1,140 Level FlightAware
05:12PM 38.0270 -84.0930 76° East 502 578 28,700 1,140 Climbing FlightAware
05:12PM 38.0420 -84.0020 78° East 502 578 28,700  Level FlightAware
05:13PM 38.0610 -83.8920 78° East 502 578 28,700  Level FlightAware
05:14PM 38.0760 -83.8010 78° East 502 578 28,700  Level FlightAware
05:15PM 38.0950 -83.6830 78° East 502 578 28,700  Level FlightAware
05:15PM 38.1100 -83.5950 78° East 502 578 28,700 1,320 Level FlightAware
05:18PM 38.1820 -83.0210 81° East 509 586 33,000 1,260 Climbing FlightAware
05:19PM 38.2130 -82.8880 73° East 503 579 33,000  Level FlightAware
05:19PM 38.2700 -82.7910 53° Northeast 500 575 33,000  Level FlightAware
05:20PM 38.3320 -82.6870 53° Northeast 502 578 33,000  Level FlightAware
05:21PM 38.3880 -82.5930 53° Northeast 503 579 33,000  Level FlightAware
05:21PM 38.4490 -82.4860 54° Northeast 498 573 33,000  Level FlightAware
05:22PM 38.5250 -82.3590 53° Northeast 500 575 33,000  Level FlightAware
05:23PM 38.5750 -82.2740 53° Northeast 502 578 33,000  Level FlightAware
05:24PM 38.6280 -82.1830 53° Northeast 502 578 33,000  Level FlightAware
05:24PM 38.6910 -82.0730 54° Northeast 502 578 33,000  Level FlightAware
05:25PM 38.7470 -81.9780 53° Northeast 499 574 33,000  Level FlightAware
05:26PM 38.8060 -81.8760 53° Northeast 498 573 33,000  Level FlightAware
05:27PM 38.8650 -81.7730 54° Northeast 503 579 33,000  Level FlightAware
05:27PM 38.9120 -81.6920 53° Northeast 502 578 33,000  Level FlightAware
05:28PM 38.9730 -81.5840 54° Northeast 500 575 33,000  Level FlightAware
05:28PM 39.0250 -81.4930 54° Northeast 500 575 33,000  Level FlightAware
05:29PM 39.0830 -81.3920 53° Northeast 499 574 33,000  Level FlightAware
05:30PM 39.1330 -81.3030 54° Northeast 500 575 33,000  Level FlightAware
05:30PM 39.1900 -81.2040 53° Northeast 502 578 33,000  Level FlightAware
05:31PM 39.2410 -81.1120 54° Northeast 501 577 33,000  Level FlightAware
05:32PM 39.2960 -81.0160 53° Northeast 500 575 33,000  Level FlightAware
05:33PM 39.3520 -80.9140 55° Northeast 499 574 33,000  Level FlightAware
05:33PM 39.4140 -80.8030 54° Northeast 498 573 33,000  Level FlightAware
05:34PM 39.4760 -80.6940 54° Northeast 500 575 33,000  Level FlightAware
05:35PM 39.5500 -80.5600 54° Northeast 502 578 33,000  Level FlightAware
05:36PM 39.6020 -80.4660 54° Northeast 503 579 33,000  Level FlightAware
05:36PM 39.6670 -80.3490 54° Northeast 504 580 33,000  Level FlightAware
05:37PM 39.7320 -80.2300 55° Northeast 506 582 33,000  Level FlightAware
05:38PM 39.7960 -80.1130 55° Northeast 507 583 33,000  Level FlightAware
05:39PM 39.8530 -80.0090 54° Northeast 507 583 33,000  Level FlightAware
05:39PM 39.9090 -79.9060 55° Northeast 508 585 33,000  Level FlightAware
05:40PM 39.9680 -79.7960 55° Northeast 509 586 33,000  Level FlightAware
05:41PM 40.0220 -79.6960 55° Northeast 509 586 33,000  Level FlightAware
05:41PM 40.0860 -79.5780 55° Northeast 509 586 33,000  Level FlightAware
05:42PM 40.1270 -79.5000 55° Northeast 509 586 33,000  Level FlightAware
05:43PM 40.1860 -79.3910 55° Northeast 507 583 33,000  Level FlightAware
05:43PM 40.2400 -79.2910 55° Northeast 504 580 33,000  Level FlightAware
05:44PM 40.2870 -79.2010 56° Northeast 503 579 33,000  Level FlightAware
05:45PM 40.3450 -79.0910 55° Northeast 501 577 33,000  Level FlightAware
05:45PM 40.4010 -78.9860 55° Northeast 501 577 33,000  Level FlightAware
05:46PM 40.4550 -78.8840 55° Northeast 500 575 33,000  Level FlightAware
05:47PM 40.5030 -78.7910 56° Northeast 500 575 33,000  Level FlightAware
05:47PM 40.5630 -78.6760 55° Northeast 500 575 33,000  Level FlightAware
05:48PM 40.6180 -78.5730 55° Northeast 500 575 33,000  Level FlightAware
05:49PM 40.6770 -78.4580 56° Northeast 499 574 33,000  Level FlightAware
05:50PM 40.7290 -78.3570 56° Northeast 500 575 33,000  Level FlightAware
05:50PM 40.7820 -78.2530 56° Northeast 502 578 33,000  Level FlightAware
05:51PM 40.8310 -78.1600 55° Northeast 502 578 33,000  Level FlightAware
05:52PM 40.8880 -78.0480 56° Northeast 505 581 33,000  Level FlightAware
05:52PM 40.9420 -77.9360 57° Northeast 504 580 33,000  Level FlightAware
05:53PM 40.9870 -77.8350 59° Northeast 503 579 33,000  Level FlightAware
05:54PM 41.0360 -77.7270 59° Northeast 501 577 33,000  Level FlightAware
05:54PM 41.0800 -77.6260 60° Northeast 499 574 33,000  Level FlightAware
05:55PM 41.1370 -77.4970 60° Northeast 498 573 33,000  Level FlightAware
05:56PM 41.1970 -77.3600 60° Northeast 499 574 33,000  Level FlightAware
05:57PM 41.2410 -77.2590 60° Northeast 500 575 33,000  Level FlightAware
05:57PM 41.2890 -77.1500 60° Northeast 502 578 33,000  Level FlightAware
05:58PM 41.3360 -77.0410 60° Northeast 504 580 33,000  Level FlightAware
05:59PM 41.3780 -76.9440 60° Northeast 502 578 33,000  Level FlightAware
05:59PM 41.4290 -76.8260 60° Northeast 500 575 33,000  Level FlightAware
06:00PM 41.4792 -76.7090 60° Northeast 500 575 33,000  Level FlightAware ADS-B
06:01PM 41.5222 -76.6094 60° Northeast 502 578 33,000  Level FlightAware ADS-B
06:01PM 41.5576 -76.5280 60° Northeast 508 585 33,000  Level FlightAware ADS-B
06:02PM 41.5935 -76.4434 60° Northeast 508 585 33,000  Level FlightAware ADS-B
06:02PM 41.6312 -76.3539 61° Northeast 504 580 33,000  Level FlightAware ADS-B
06:03PM 41.6758 -76.2481 61° Northeast 505 581 33,000  Level FlightAware ADS-B
06:03PM 41.7121 -76.1612 61° Northeast 504 580 33,000  Level FlightAware ADS-B
06:04PM 41.7490 -76.0741 60° Northeast 508 585 33,000  Level FlightAware ADS-B
06:05PM 41.7937 -75.9696 60° Northeast 509 586 33,000  Level FlightAware ADS-B
06:05PM 41.8426 -75.8514 61° Northeast 509 586 33,000  Level FlightAware ADS-B
06:06PM 41.8990 -75.7150 61° Northeast 503 579 33,000  Level FlightAware
06:07PM 41.9460 -75.6030 61° Northeast 507 583 33,000  Level FlightAware
06:08PM 41.9970 -75.4790 61° Northeast 512 589 33,000  Level FlightAware
06:08PM 42.0430 -75.3670 61° Northeast 515 593 33,000  Level FlightAware
06:09PM 42.0930 -75.2510 60° Northeast 514 592 33,000  Level FlightAware
06:10PM 42.1460 -75.1370 58° Northeast 511 588 33,000  Level FlightAware
06:11PM 42.2380 -74.9390 58° Northeast 535 616 33,000 -60 Level FlightAware
06:12PM 42.3190 -74.7610 58° Northeast 544 626 32,900 -660 Descending FlightAware
06:13PM 42.3820 -74.6220 58° Northeast 540 621 31,800 -2,340 Descending FlightAware
06:13PM 42.4380 -74.4990 58° Northeast 534 615 29,500 -2,040 Descending FlightAware
06:14PM 42.4890 -74.3860 59° Northeast 527 606 29,000 -420 Descending FlightAware
06:15PM 42.5380 -74.2760 59° Northeast 529 609 29,000 -540 Level FlightAware
06:15PM 42.5720 -74.1250 73° East 527 606 28,300 -840 Descending FlightAware
06:16PM 42.5900 -73.9860 80° East 522 601 27,700 -360 Descending FlightAware
06:17PM 42.6110 -73.8210 80° East 522 601 27,700  Level FlightAware
06:18PM 42.6240 -73.7220 80° East 522 601 27,700  Level FlightAware
06:19PM 42.6400 -73.5960 80° East 522 601 27,700 -2,940 Level FlightAware
06:20PM 42.6764 -73.3156 80° East 484 557 21,400 -2,820 Descending Boston Center
06:21PM 42.6939 -73.1772 80° East 479 551 21,000 -240 Descending Boston Center
06:22PM 42.7161 -72.9658 82° East 467 537 21,000 -1,560 Level Boston Center
06:28PM 42.8090 -71.9650 82° East 312 359 9,800 -1,800 Descending FlightAware
06:29PM 42.7890 -71.8400 102° East 303 349 7,700 -1,920 Descending FlightAware
06:30PM 42.7870 -71.8230 99° East 305 351 7,400 -1,800 Descending FlightAware
06:30PM 42.7780 -71.7690 103° East 295 339 6,500 -1,320 Descending FlightAware
06:31PM 42.7790 -71.7220 88° East 284 327 6,200 -1,020 Descending FlightAware
06:31PM 42.7830 -71.6510 86° East 283 326 5,400 -1,320 Descending FlightAware
06:31PM 42.7840 -71.6330 86° East 282 325 5,100 -1,500 Descending FlightAware
06:32PM 42.7860 -71.5780 87° East 277 319 4,400 -1,200 Descending FlightAware
06:32PM 42.7870 -71.5540 87° East 269 310 4,200 -480 Descending FlightAware
06:33PM 42.7890 -71.5130 86° East 244 281 4,100 -840 Descending FlightAware
06:33PM 42.7910 -71.4750 86° East 232 267 3,500 -1,080 Descending FlightAware
06:33PM 42.7920 -71.4420 88° East 219 252 3,200 -600 Descending FlightAware
06:34PM 42.7940 -71.4070 86° East 205 236 3,000 -540 Descending FlightAware
06:34PM 42.7990 -71.3830 74° East 195 224 2,800 -720 Descending FlightAware
06:35PM 42.8100 -71.3580 59° Northeast 173 199 2,500 -540 Descending FlightAware
06:35PM 42.8170 -71.3540 23° Northeast 161 185 2,500 -240 Level FlightAware
06:35PM 42.8300 -71.3640 331° Northwest 162 186 2,400 -540 Descending FlightAware
06:35PM 42.8440 -71.3800 320° Northwest 145 167 2,100 -780 Descending FlightAware
06:36PM 42.8520 -71.3850 335° Northwest 126 145 1,900 -840 Descending FlightAware
06:36PM 42.8690 -71.3970 333° Northwest 128 147 1,500 -780 Descending FlightAware
06:36PM 42.8730 -71.3990 340° North 122 140 1,400 -720 Descending FlightAware
06:37PM 42.8890 -71.4080 338° Northwest 128 147 1,100 -720 Descending FlightAware
06:37PM 42.8990 -71.4140 336° Northwest 127 146 900 -720 Descending FlightAware
06:38PM 42.9130 -71.4220 337° Northwest 129 148 600 -780 Descending FlightAware
06:38PM 42.9200 -71.4270 332° Northwest 127 146 400 -300 Descending FlightAware
06:38PM 42.9320 -71.4340 337° Northwest 127 146 400 14,160 Level FlightAware
06:39PM 42.9650 -71.4583 337° Northwest 127 146 21,000 10,200 Climbing Boston Center
06:40PM 42.9967 -71.4778 336° Northwest 127 146 21,000  Level Boston Center
06:41PM 43.0217 -71.4944 334° Northwest 127 146 21,000  Level Boston Center
06:43PM 42.9328 -71.4358 160° South  Level Estimated
06:50PM 42.9328 -71.4358 160° South  Level Estimated
06:51PM 42.9328 -71.4358 160° South  Level Estimated
06:52PM 42.9328 -71.4358 160° South  Level Estimated
06:53PM 42.9328 -71.4358 160° South  Level Estimated
06:54PM 42.9328 -71.4358 160° South  Level Estimated